Time;durP1;ratioP1;P1;durP2;ratioP2;P2;SDS_P1;SDS_P2;PMS_P1;PMS_P2;Temp;Humidity;BMP_temperature;BMP_pressure;BME280_temperature;BME280_humidity;BME280_pressure;Samples;Min_cycle;Max_cycle;Signal;HPM_P1;HPM_P2
2024/04/14 00:00:09;;;;;;;7.82;3.40;;;;;;;;;;5408162;26;20007;-67
2024/04/14 00:02:34;;;;;;;9.10;3.40;;;;;;;;;;5409818;26;20071;-67
2024/04/14 00:04:59;;;;;;;14.67;3.93;;;;;;;;;;5406311;26;20008;-67
2024/04/14 00:07:25;;;;;;;9.13;3.43;;;;;;;;;;5407028;26;20347;-67
2024/04/14 00:09:50;;;;;;;9.63;3.60;;;;;;;;;;5372637;26;20342;-67
2024/04/14 00:12:15;;;;;;;16.80;2.67;;;;;;;;;;5407196;26;20011;-67
2024/04/14 00:14:40;;;;;;;6.33;2.70;;;;;;;;;;5398747;26;20292;-67
2024/04/14 00:17:05;;;;;;;7.55;2.42;;;;;;;;;;5408100;26;20241;-67
2024/04/14 00:19:31;;;;;;;7.83;3.30;;;;;;;;;;5411002;26;20035;-67
2024/04/14 00:21:56;;;;;;;8.45;2.90;;;;;;;;;;5410136;26;20241;-67
2024/04/14 00:24:21;;;;;;;4.82;2.38;;;;;;;;;;5413071;26;20014;-67
2024/04/14 00:26:48;;;;;;;8.83;2.63;;;;;;;;;;5409310;26;20018;-67
2024/04/14 00:29:13;;;;;;;4.32;2.45;;;;;;;;;;5408466;26;19995;-68
2024/04/14 00:31:38;;;;;;;12.30;2.90;;;;;;;;;;5405393;26;20366;-67
2024/04/14 00:34:04;;;;;;;6.30;2.33;;;;;;;;;;5399756;26;19999;-67
2024/04/14 00:36:29;;;;;;;4.72;2.10;;;;;;;;;;5408862;26;20021;-67
2024/04/14 00:38:54;;;;;;;6.63;2.23;;;;;;;;;;5396610;26;20123;-67
2024/04/14 00:41:19;;;;;;;4.07;2.17;;;;;;;;;;5402998;26;20247;-67
2024/04/14 00:43:45;;;;;;;8.80;2.73;;;;;;;;;;5399864;26;21652;-66
2024/04/14 00:46:10;;;;;;;3.67;2.13;;;;;;;;;;5404897;26;20274;-67
2024/04/14 00:48:35;;;;;;;8.20;2.45;;;;;;;;;;5412029;26;20249;-67
2024/04/14 00:51:00;;;;;;;10.27;1.97;;;;;;;;;;5403610;26;19999;-68
2024/04/14 00:53:26;;;;;;;3.80;2.20;;;;;;;;;;5412085;26;20348;-66
2024/04/14 00:55:51;;;;;;;4.93;1.63;;;;;;;;;;5408519;26;20007;-67
2024/04/14 00:58:17;;;;;;;4.13;1.88;;;;;;;;;;5404806;26;20037;-66
2024/04/14 01:00:42;;;;;;;6.30;1.63;;;;;;;;;;5405102;26;20011;-67
2024/04/14 01:03:07;;;;;;;6.45;2.30;;;;;;;;;;5398387;26;20405;-67
2024/04/14 01:05:33;;;;;;;9.35;2.63;;;;;;;;;;5406252;26;20463;-67
2024/04/14 01:07:58;;;;;;;5.10;2.00;;;;;;;;;;5406968;26;20409;-66
2024/04/14 01:10:23;;;;;;;5.07;1.23;;;;;;;;;;5403964;26;20779;-67
2024/04/14 01:12:48;;;;;;;3.03;1.50;;;;;;;;;;5405051;26;20237;-67
2024/04/14 01:15:14;;;;;;;7.63;1.98;;;;;;;;;;5401209;26;20238;-67
2024/04/14 01:17:39;;;;;;;6.28;1.33;;;;;;;;;;5409458;26;20017;-67
2024/04/14 01:20:04;;;;;;;5.90;1.50;;;;;;;;;;5411073;26;20011;-67
2024/04/14 01:22:30;;;;;;;5.47;1.50;;;;;;;;;;5409257;26;20244;-67
2024/04/14 01:25:06;;;;;;;3.38;1.13;;;;;;;;;;5409628;26;20370;-67
2024/04/14 01:27:31;;;;;;;7.38;1.73;;;;;;;;;;5400197;26;20049;-67
2024/04/14 01:29:56;;;;;;;6.80;1.55;;;;;;;;;;5400720;26;20446;-67
2024/04/14 01:32:22;;;;;;;6.18;1.50;;;;;;;;;;5407821;26;19996;-66
2024/04/14 01:34:47;;;;;;;6.40;1.63;;;;;;;;;;5405364;26;19996;-66
2024/04/14 01:37:12;;;;;;;1.75;1.05;;;;;;;;;;5407867;26;21034;-67
2024/04/14 01:39:38;;;;;;;10.52;1.42;;;;;;;;;;5408486;26;19999;-67
2024/04/14 01:42:03;;;;;;;5.15;1.85;;;;;;;;;;5404063;26;19999;-67
2024/04/14 01:44:28;;;;;;;9.90;1.55;;;;;;;;;;5405876;26;20012;-67
2024/04/14 01:46:54;;;;;;;7.13;2.07;;;;;;;;;;5410374;26;20019;-67
2024/04/14 01:49:19;;;;;;;5.70;1.77;;;;;;;;;;5405764;26;20344;-67
2024/04/14 01:51:44;;;;;;;4.80;1.40;;;;;;;;;;5401060;26;20076;-67
2024/04/14 01:54:10;;;;;;;2.57;1.00;;;;;;;;;;5408436;26;19999;-67
2024/04/14 01:56:35;;;;;;;2.40;1.02;;;;;;;;;;5407564;26;20347;-66
2024/04/14 01:59:02;;;;;;;6.88;1.10;;;;;;;;;;5404618;26;20006;-67
2024/04/14 02:01:27;;;;;;;2.53;1.08;;;;;;;;;;5409968;26;20003;-66
2024/04/14 02:03:53;;;;;;;6.10;1.60;;;;;;;;;;5400599;26;20334;-67
2024/04/14 02:06:18;;;;;;;5.07;1.27;;;;;;;;;;5409862;26;20004;-67
2024/04/14 02:08:43;;;;;;;6.10;1.43;;;;;;;;;;5400801;26;20076;-67
2024/04/14 02:11:08;;;;;;;5.00;1.07;;;;;;;;;;5402360;26;20443;-67
2024/04/14 02:13:35;;;;;;;3.93;0.90;;;;;;;;;;5400233;26;19993;-67
2024/04/14 02:16:00;;;;;;;4.60;1.48;;;;;;;;;;5396224;26;20734;-67
2024/04/14 02:18:25;;;;;;;5.70;1.17;;;;;;;;;;5404181;26;19995;-67
2024/04/14 02:20:50;;;;;;;4.60;1.17;;;;;;;;;;5399237;26;20018;-66
2024/04/14 02:23:15;;;;;;;7.00;1.03;;;;;;;;;;5400180;26;20043;-67
2024/04/14 02:25:41;;;;;;;2.47;0.97;;;;;;;;;;5402204;26;20000;-67
2024/04/14 02:28:06;;;;;;;3.40;0.90;;;;;;;;;;5408739;26;20229;-66
2024/04/14 02:30:31;;;;;;;5.53;1.08;;;;;;;;;;5409149;26;20241;-67
2024/04/14 02:32:56;;;;;;;5.83;1.03;;;;;;;;;;5409666;26;20007;-67
2024/04/14 02:35:21;;;;;;;3.43;1.00;;;;;;;;;;5401036;26;20732;-67
2024/04/14 02:37:47;;;;;;;5.25;0.98;;;;;;;;;;5403154;26;20229;-67
2024/04/14 02:40:13;;;;;;;9.02;2.08;;;;;;;;;;5402603;26;20026;-67
2024/04/14 02:42:39;;;;;;;3.80;1.33;;;;;;;;;;5374751;26;20000;-66
2024/04/14 02:45:04;;;;;;;3.47;1.00;;;;;;;;;;5406308;26;20338;-67
2024/04/14 02:47:29;;;;;;;7.00;0.90;;;;;;;;;;5406418;26;20378;-67
2024/04/14 02:49:54;;;;;;;3.70;0.87;;;;;;;;;;5403396;26;20023;-67
2024/04/14 02:52:20;;;;;;;5.38;0.95;;;;;;;;;;5410061;26;20281;-67
2024/04/14 02:54:45;;;;;;;5.83;1.20;;;;;;;;;;5403428;26;20003;-67
2024/04/14 02:57:10;;;;;;;5.43;0.98;;;;;;;;;;5407551;26;20335;-67
2024/04/14 02:59:36;;;;;;;2.22;0.90;;;;;;;;;;5409238;26;20063;-67
2024/04/14 03:02:01;;;;;;;7.50;1.30;;;;;;;;;;5403309;26;19991;-66
2024/04/14 03:04:26;;;;;;;1.93;0.80;;;;;;;;;;5403858;26;20004;-67
2024/04/14 03:06:54;;;;;;;7.43;1.43;;;;;;;;;;5406331;26;20283;-67
2024/04/14 03:09:19;;;;;;;4.78;0.90;;;;;;;;;;5408453;26;20246;-67
2024/04/14 03:11:45;;;;;;;4.40;1.10;;;;;;;;;;5410925;26;19995;-66
2024/04/14 03:14:10;;;;;;;4.60;1.10;;;;;;;;;;5406687;26;20072;-67
2024/04/14 03:16:35;;;;;;;3.95;1.13;;;;;;;;;;5407407;26;20245;-66
2024/04/14 03:19:01;;;;;;;8.20;1.42;;;;;;;;;;5406377;26;20032;-67
2024/04/14 03:21:26;;;;;;;2.55;0.77;;;;;;;;;;5404508;26;20406;-67
2024/04/14 03:23:51;;;;;;;2.03;0.83;;;;;;;;;;5407126;26;20010;-67
2024/04/14 03:26:16;;;;;;;2.67;1.30;;;;;;;;;;5410189;26;20668;-67
2024/04/14 03:28:41;;;;;;;2.97;1.00;;;;;;;;;;5410292;26;20581;-66
2024/04/14 03:31:07;;;;;;;2.93;1.20;;;;;;;;;;5409942;26;20270;-67
2024/04/14 03:33:32;;;;;;;4.53;1.02;;;;;;;;;;5412320;26;20552;-66
2024/04/14 03:35:58;;;;;;;5.95;1.10;;;;;;;;;;5403032;26;20011;-67
2024/04/14 03:38:24;;;;;;;4.63;1.05;;;;;;;;;;5402901;26;20008;-67
2024/04/14 03:40:52;;;;;;;3.85;1.23;;;;;;;;;;5413392;26;20094;-67
2024/04/14 03:43:17;;;;;;;9.77;1.40;;;;;;;;;;5409179;26;20010;-67
2024/04/14 03:45:43;;;;;;;3.23;1.20;;;;;;;;;;5412523;26;20256;-67
2024/04/14 03:48:08;;;;;;;5.63;1.27;;;;;;;;;;5412509;26;20438;-67
2024/04/14 03:50:33;;;;;;;4.60;1.17;;;;;;;;;;5409659;26;20374;-67
2024/04/14 03:52:59;;;;;;;4.27;1.23;;;;;;;;;;5409729;26;20271;-66
2024/04/14 03:55:24;;;;;;;14.97;1.40;;;;;;;;;;5409249;26;20229;-66
2024/04/14 03:57:49;;;;;;;6.70;1.30;;;;;;;;;;5410271;26;20000;-67
2024/04/14 04:00:14;;;;;;;8.50;1.30;;;;;;;;;;5409744;26;20241;-67
2024/04/14 04:02:39;;;;;;;9.02;1.50;;;;;;;;;;5412281;26;20004;-67
2024/04/14 04:05:06;;;;;;;8.63;1.93;;;;;;;;;;5407403;26;19996;-66
2024/04/14 04:07:31;;;;;;;6.00;1.60;;;;;;;;;;5403440;26;20244;-66
2024/04/14 04:09:56;;;;;;;6.90;1.40;;;;;;;;;;5411104;26;20887;-66
2024/04/14 04:12:21;;;;;;;1.70;1.03;;;;;;;;;;5411868;26;20010;-67
2024/04/14 04:14:47;;;;;;;7.10;2.30;;;;;;;;;;5411517;26;20011;-67
2024/04/14 04:17:12;;;;;;;4.93;1.40;;;;;;;;;;5411643;26;20285;-67
2024/04/14 04:19:37;;;;;;;4.67;1.30;;;;;;;;;;5408895;26;20276;-67
2024/04/14 04:22:02;;;;;;;8.10;1.90;;;;;;;;;;5412926;26;20855;-66
2024/04/14 04:24:28;;;;;;;7.00;1.50;;;;;;;;;;5407255;26;20125;-66
2024/04/14 04:26:53;;;;;;;5.85;1.58;;;;;;;;;;5410839;26;19991;-67
2024/04/14 04:29:19;;;;;;;2.53;1.17;;;;;;;;;;5412606;26;20462;-66
2024/04/14 04:31:44;;;;;;;6.80;1.58;;;;;;;;;;5409942;26;20630;-66
2024/04/14 04:34:09;;;;;;;8.83;1.40;;;;;;;;;;5412256;26;20007;-67
2024/04/14 04:36:34;;;;;;;4.80;1.55;;;;;;;;;;5412824;26;20253;-67
2024/04/14 04:39:02;;;;;;;7.73;1.47;;;;;;;;;;5408735;26;19999;-66
2024/04/14 04:41:27;;;;;;;11.80;2.60;;;;;;;;;;5411110;26;20707;-67
2024/04/14 04:43:53;;;;;;;8.95;2.42;;;;;;;;;;5412495;26;19996;-67
2024/04/14 04:46:18;;;;;;;9.93;1.70;;;;;;;;;;5412484;26;19995;-67
2024/04/14 04:48:43;;;;;;;6.57;2.23;;;;;;;;;;5403572;26;20233;-66
2024/04/14 04:51:08;;;;;;;11.43;1.77;;;;;;;;;;5402391;26;20226;-67
2024/04/14 04:53:33;;;;;;;7.50;1.75;;;;;;;;;;5405822;26;20425;-67
2024/04/14 04:55:59;;;;;;;8.18;2.08;;;;;;;;;;5394969;26;20004;-67
2024/04/14 04:58:24;;;;;;;6.22;1.67;;;;;;;;;;5408823;26;19992;-66
2024/04/14 05:00:56;;;;;;;12.52;2.40;;;;;;;;;;5406388;26;20474;-67
2024/04/14 05:03:22;;;;;;;8.18;2.22;;;;;;;;;;5404464;26;20011;-67
2024/04/14 05:05:57;;;;;;;13.02;2.55;;;;;;;;;;5403496;26;20512;-67
2024/04/14 05:08:23;;;;;;;7.20;1.65;;;;;;;;;;5407871;26;20075;-68
2024/04/14 05:10:48;;;;;;;10.38;2.00;;;;;;;;;;5411311;26;20007;-66
2024/04/14 05:13:13;;;;;;;11.60;1.80;;;;;;;;;;5409361;26;20338;-66
2024/04/14 05:15:38;;;;;;;8.85;2.53;;;;;;;;;;5407893;26;20237;-67
2024/04/14 05:18:04;;;;;;;7.97;1.90;;;;;;;;;;5409925;26;20519;-67
2024/04/14 05:20:29;;;;;;;9.55;2.42;;;;;;;;;;5404708;26;20281;-66
2024/04/14 05:22:54;;;;;;;14.45;2.70;;;;;;;;;;5397803;26;19992;-67
2024/04/14 05:25:19;;;;;;;10.20;2.27;;;;;;;;;;5406201;26;19988;-67
2024/04/14 05:27:44;;;;;;;11.93;2.40;;;;;;;;;;5402835;26;20772;-66
2024/04/14 05:30:09;;;;;;;12.70;3.70;;;;;;;;;;5404370;26;20275;-67
2024/04/14 05:32:35;;;;;;;10.00;3.03;;;;;;;;;;5407407;26;20241;-66
2024/04/14 05:35:00;;;;;;;18.53;2.53;;;;;;;;;;5400486;26;20007;-67
2024/04/14 05:37:25;;;;;;;13.50;2.72;;;;;;;;;;5407342;26;20007;-66
2024/04/14 05:39:50;;;;;;;14.57;2.70;;;;;;;;;;5407083;26;20011;-66
2024/04/14 05:42:15;;;;;;;11.47;2.67;;;;;;;;;;5411585;26;19995;-66
2024/04/14 05:44:45;;;;;;;14.93;3.03;;;;;;;;;;5394266;26;20589;-67
2024/04/14 05:47:11;;;;;;;9.73;2.45;;;;;;;;;;5411201;26;20014;-67
2024/04/14 05:49:36;;;;;;;12.17;2.83;;;;;;;;;;5408981;26;20000;-67
2024/04/14 05:52:01;;;;;;;15.27;3.13;;;;;;;;;;5410661;26;20288;-67
2024/04/14 05:54:28;;;;;;;10.73;2.78;;;;;;;;;;5409066;26;20006;-67
2024/04/14 05:56:53;;;;;;;12.82;2.88;;;;;;;;;;5408056;26;19999;-66
2024/04/14 05:59:18;;;;;;;9.68;3.38;;;;;;;;;;5403579;26;19992;-66
2024/04/14 06:01:43;;;;;;;13.37;2.50;;;;;;;;;;5410193;26;19987;-67
2024/04/14 06:04:09;;;;;;;18.23;3.53;;;;;;;;;;5407564;26;20221;-66
2024/04/14 06:06:34;;;;;;;11.93;3.23;;;;;;;;;;5399181;26;20674;-66
2024/04/14 06:08:59;;;;;;;15.70;4.13;;;;;;;;;;5396801;26;20273;-67
2024/04/14 06:11:24;;;;;;;9.27;2.97;;;;;;;;;;5408299;26;20237;-67
2024/04/14 06:13:49;;;;;;;21.08;4.03;;;;;;;;;;5406152;26;20285;-67
2024/04/14 06:16:15;;;;;;;12.77;3.50;;;;;;;;;;5412347;26;19996;-67
2024/04/14 06:18:40;;;;;;;19.23;3.93;;;;;;;;;;5404921;26;20241;-66
2024/04/14 06:21:05;;;;;;;22.63;4.47;;;;;;;;;;5405481;26;20284;-67
2024/04/14 06:23:30;;;;;;;15.68;3.63;;;;;;;;;;5409929;26;20000;-66
2024/04/14 06:25:55;;;;;;;14.43;3.17;;;;;;;;;;5410866;26;20007;-67
2024/04/14 06:28:21;;;;;;;15.50;4.80;;;;;;;;;;5408379;26;20244;-67
2024/04/14 06:30:46;;;;;;;15.82;4.28;;;;;;;;;;5410670;26;20273;-67
2024/04/14 06:33:11;;;;;;;18.50;3.65;;;;;;;;;;5411298;26;20010;-67
2024/04/14 06:35:37;;;;;;;12.73;3.88;;;;;;;;;;5408710;26;19999;-67
2024/04/14 06:38:03;;;;;;;13.90;4.07;;;;;;;;;;5403564;26;20012;-67
2024/04/14 06:40:28;;;;;;;17.92;4.28;;;;;;;;;;5392714;26;20086;-67
2024/04/14 06:42:53;;;;;;;18.17;4.20;;;;;;;;;;5400609;26;20001;-67
2024/04/14 06:45:19;;;;;;;14.70;4.43;;;;;;;;;;5399619;26;20369;-66
2024/04/14 06:47:44;;;;;;;19.25;4.88;;;;;;;;;;5397614;26;20000;-67
2024/04/14 06:50:10;;;;;;;14.53;4.23;;;;;;;;;;5403573;26;20014;-67
2024/04/14 06:52:35;;;;;;;11.73;4.15;;;;;;;;;;5403243;26;20603;-66
2024/04/14 06:55:00;;;;;;;20.10;4.57;;;;;;;;;;5413798;26;20444;-66
2024/04/14 06:57:26;;;;;;;17.80;4.73;;;;;;;;;;5394468;26;20470;-67
2024/04/14 06:59:51;;;;;;;16.67;5.23;;;;;;;;;;5399272;26;20343;-66
2024/04/14 07:02:16;;;;;;;19.53;5.13;;;;;;;;;;5407191;26;20233;-66
2024/04/14 07:04:41;;;;;;;17.80;4.10;;;;;;;;;;5410228;26;20355;-67
2024/04/14 07:07:06;;;;;;;16.95;4.53;;;;;;;;;;5402726;26;19995;-67
2024/04/14 07:09:31;;;;;;;18.20;4.50;;;;;;;;;;5397225;26;19996;-67
2024/04/14 07:11:57;;;;;;;16.50;5.20;;;;;;;;;;5396059;26;20230;-67
2024/04/14 07:14:22;;;;;;;12.18;4.25;;;;;;;;;;5411288;26;20006;-66
2024/04/14 07:16:47;;;;;;;23.37;4.93;;;;;;;;;;5398735;26;20440;-67
2024/04/14 07:19:12;;;;;;;11.33;4.33;;;;;;;;;;5401912;26;20336;-67
2024/04/14 07:21:39;;;;;;;21.13;5.20;;;;;;;;;;5400837;26;20586;-67
2024/04/14 07:24:05;;;;;;;12.75;4.63;;;;;;;;;;5396091;26;20290;-67
2024/04/14 07:26:30;;;;;;;20.08;5.28;;;;;;;;;;5394247;26;20007;-67
2024/04/14 07:28:55;;;;;;;18.40;4.77;;;;;;;;;;5390805;26;20012;-67
2024/04/14 07:31:20;;;;;;;25.48;5.43;;;;;;;;;;5409071;26;20278;-67
2024/04/14 07:33:45;;;;;;;19.30;5.77;;;;;;;;;;5394289;26;20661;-67
2024/04/14 07:36:10;;;;;;;18.23;5.50;;;;;;;;;;5391707;26;20234;-66
2024/04/14 07:38:36;;;;;;;17.60;5.17;;;;;;;;;;5408923;26;20229;-67
2024/04/14 07:41:01;;;;;;;13.90;4.33;;;;;;;;;;5401114;26;20656;-67
2024/04/14 07:43:26;;;;;;;10.68;4.93;;;;;;;;;;5399640;26;20270;-67
2024/04/14 07:45:51;;;;;;;17.27;4.67;;;;;;;;;;5392246;26;20003;-67
2024/04/14 07:48:17;;;;;;;21.30;5.90;;;;;;;;;;5404644;26;20257;-67
2024/04/14 07:50:43;;;;;;;17.33;5.50;;;;;;;;;;5406110;26;20234;-67
2024/04/14 07:53:08;;;;;;;12.65;4.18;;;;;;;;;;5399957;26;20245;-66
2024/04/14 07:55:33;;;;;;;15.45;4.68;;;;;;;;;;5402754;26;20457;-67
2024/04/14 07:57:59;;;;;;;19.00;5.50;;;;;;;;;;5405330;26;20483;-67
2024/04/14 08:00:24;;;;;;;20.17;5.40;;;;;;;;;;5409170;26;20278;-67
2024/04/14 08:02:49;;;;;;;18.13;4.97;;;;;;;;;;5404167;26;20425;-66
2024/04/14 08:05:15;;;;;;;21.60;4.70;;;;;;;;;;5397502;26;20003;-67
2024/04/14 08:07:40;;;;;;;16.20;4.22;;;;;;;;;;5409632;26;20284;-67
2024/04/14 08:10:05;;;;;;;14.68;4.22;;;;;;;;;;5398689;26;20016;-67
2024/04/14 08:12:30;;;;;;;18.25;4.70;;;;;;;;;;5405417;26;20007;-67
2024/04/14 08:14:55;;;;;;;18.90;4.50;;;;;;;;;;5412725;26;20042;-67
2024/04/14 08:17:21;;;;;;;18.23;4.60;;;;;;;;;;5410026;26;20270;-67
2024/04/14 08:19:46;;;;;;;14.87;5.83;;;;;;;;;;5400250;26;20454;-67
2024/04/14 08:22:11;;;;;;;12.45;5.07;;;;;;;;;;5405942;26;20257;-67
2024/04/14 08:24:36;;;;;;;19.47;4.50;;;;;;;;;;5401234;26;20014;-67
2024/04/14 08:27:01;;;;;;;20.90;5.73;;;;;;;;;;5405527;26;20005;-67
2024/04/14 08:29:27;;;;;;;14.90;4.57;;;;;;;;;;5413069;26;20471;-67
2024/04/14 08:31:55;;;;;;;18.95;5.32;;;;;;;;;;5410961;26;20003;-67
2024/04/14 08:34:20;;;;;;;24.08;6.32;;;;;;;;;;5409887;26;19996;-67
2024/04/14 08:36:45;;;;;;;18.57;4.43;;;;;;;;;;5410812;26;20020;-67
2024/04/14 08:39:10;;;;;;;16.37;4.23;;;;;;;;;;5408660;26;20662;-66
2024/04/14 08:41:38;;;;;;;17.53;4.50;;;;;;;;;;5412386;26;20006;-67
2024/04/14 08:44:04;;;;;;;17.85;5.30;;;;;;;;;;5412842;26;20241;-67
2024/04/14 08:46:30;;;;;;;15.73;4.85;;;;;;;;;;5412918;26;20679;-66
2024/04/14 08:48:56;;;;;;;11.88;4.63;;;;;;;;;;5406322;26;19999;-67
2024/04/14 08:51:21;;;;;;;17.35;5.63;;;;;;;;;;5397576;26;19996;-67
2024/04/14 08:53:49;;;;;;;14.27;4.75;;;;;;;;;;5407264;26;20082;-67
2024/04/14 08:56:14;;;;;;;25.23;5.20;;;;;;;;;;5401808;26;20015;-67
2024/04/14 08:58:40;;;;;;;17.95;4.70;;;;;;;;;;5395140;26;20446;-67
2024/04/14 09:01:08;;;;;;;16.13;5.40;;;;;;;;;;5395995;26;19996;-67
2024/04/14 09:03:33;;;;;;;14.45;3.95;;;;;;;;;;5393511;26;20076;-67
2024/04/14 09:06:02;;;;;;;21.85;4.15;;;;;;;;;;5368517;26;20012;-67
2024/04/14 09:08:28;;;;;;;9.73;2.53;;;;;;;;;;5407905;26;20004;-67
2024/04/14 09:10:53;;;;;;;15.27;4.07;;;;;;;;;;5399332;26;20007;-67
2024/04/14 09:13:24;;;;;;;17.77;4.00;;;;;;;;;;5399801;26;20077;-67
2024/04/14 09:15:49;;;;;;;19.77;4.03;;;;;;;;;;5400882;26;20004;-66
2024/04/14 09:18:14;;;;;;;10.30;3.60;;;;;;;;;;5403010;26;20015;-67
2024/04/14 09:20:39;;;;;;;11.43;4.27;;;;;;;;;;5410855;26;20288;-67
2024/04/14 09:23:04;;;;;;;11.23;3.73;;;;;;;;;;5405809;26;20068;-67
2024/04/14 09:25:29;;;;;;;11.75;4.28;;;;;;;;;;5405222;26;20310;-67
2024/04/14 09:28:01;;;;;;;12.57;4.57;;;;;;;;;;5393036;26;20002;-67
2024/04/14 09:30:27;;;;;;;14.68;3.85;;;;;;;;;;5399814;26;20617;-67
2024/04/14 09:32:52;;;;;;;12.52;3.78;;;;;;;;;;5402159;26;20000;-67
2024/04/14 09:35:17;;;;;;;22.15;3.97;;;;;;;;;;5404490;26;19999;-67
2024/04/14 09:37:43;;;;;;;12.27;4.40;;;;;;;;;;5399055;26;20040;-67
2024/04/14 09:40:11;;;;;;;12.60;3.88;;;;;;;;;;5400785;26;20132;-67
2024/04/14 09:42:36;;;;;;;8.93;2.90;;;;;;;;;;5397119;26;20319;-67
2024/04/14 09:45:05;;;;;;;12.73;3.13;;;;;;;;;;5397486;26;20495;-66
2024/04/14 09:47:31;;;;;;;7.82;2.40;;;;;;;;;;5400251;26;20275;-67
2024/04/14 09:49:56;;;;;;;8.98;3.00;;;;;;;;;;5405782;26;20000;-67
2024/04/14 09:52:21;;;;;;;6.97;2.08;;;;;;;;;;5410023;26;20031;-67
2024/04/14 09:54:47;;;;;;;6.47;2.75;;;;;;;;;;5407666;26;20003;-67
2024/04/14 09:57:12;;;;;;;6.63;2.10;;;;;;;;;;5406278;26;20007;-67
2024/04/14 09:59:37;;;;;;;15.87;2.77;;;;;;;;;;5403852;26;20081;-67
2024/04/14 10:02:04;;;;;;;11.47;2.33;;;;;;;;;;5398965;26;20289;-67
2024/04/14 10:04:30;;;;;;;6.22;2.63;;;;;;;;;;5409454;26;20253;-67
2024/04/14 10:06:56;;;;;;;7.50;2.17;;;;;;;;;;5397085;26;19995;-67
2024/04/14 10:09:23;;;;;;;5.65;2.10;;;;;;;;;;5401851;26;20040;-67
2024/04/14 10:11:49;;;;;;;7.15;2.33;;;;;;;;;;5408993;26;20471;-67
2024/04/14 10:14:14;;;;;;;11.85;3.25;;;;;;;;;;5407051;26;19999;-66
2024/04/14 10:16:39;;;;;;;5.93;1.70;;;;;;;;;;5406241;26;20051;-67
2024/04/14 10:19:04;;;;;;;8.70;1.97;;;;;;;;;;5406500;26;20755;-67
2024/04/14 10:21:29;;;;;;;9.05;2.40;;;;;;;;;;5403376;26;20237;-67
2024/04/14 10:23:57;;;;;;;10.30;1.88;;;;;;;;;;5400723;26;20803;-67
2024/04/14 10:26:23;;;;;;;3.95;1.60;;;;;;;;;;5406404;26;20442;-67
2024/04/14 10:28:49;;;;;;;12.20;2.10;;;;;;;;;;5408306;26;20026;-67
2024/04/14 10:31:24;;;;;;;4.10;1.50;;;;;;;;;;5408251;26;20366;-67
2024/04/14 10:33:59;;;;;;;6.63;1.70;;;;;;;;;;5409367;26;20392;-67
2024/04/14 10:36:24;;;;;;;6.65;1.52;;;;;;;;;;5401285;26;20007;-67
2024/04/14 10:38:49;;;;;;;9.68;1.88;;;;;;;;;;5401122;26;19988;-67
2024/04/14 10:41:16;;;;;;;5.00;1.50;;;;;;;;;;5408211;26;19999;-66
2024/04/14 10:43:42;;;;;;;8.45;2.15;;;;;;;;;;5408534;26;20306;-67
2024/04/14 10:46:08;;;;;;;8.02;1.80;;;;;;;;;;5408137;26;20026;-67
2024/04/14 10:48:33;;;;;;;7.15;2.15;;;;;;;;;;5404194;26;19996;-67
2024/04/14 10:51:02;;;;;;;3.40;1.50;;;;;;;;;;5400184;26;19996;-66
2024/04/14 10:53:28;;;;;;;3.08;1.35;;;;;;;;;;5403885;26;20234;-67
2024/04/14 10:55:53;;;;;;;5.45;1.80;;;;;;;;;;5398543;26;20000;-67
2024/04/14 10:58:18;;;;;;;3.87;1.80;;;;;;;;;;5410202;26;20085;-67
2024/04/14 11:00:44;;;;;;;6.32;1.55;;;;;;;;;;5408998;26;19996;-67
2024/04/14 11:03:09;;;;;;;7.03;2.22;;;;;;;;;;5402650;26;20438;-67
2024/04/14 11:05:35;;;;;;;8.05;1.90;;;;;;;;;;5401581;26;20003;-67
2024/04/14 11:08:01;;;;;;;11.65;1.80;;;;;;;;;;5401921;26;20000;-67
2024/04/14 11:10:26;;;;;;;8.25;2.38;;;;;;;;;;5409187;26;20454;-67
2024/04/14 11:12:52;;;;;;;7.97;2.35;;;;;;;;;;5410225;26;20006;-67
2024/04/14 11:15:18;;;;;;;5.53;1.73;;;;;;;;;;5407906;26;20004;-67
2024/04/14 11:17:43;;;;;;;10.48;2.58;;;;;;;;;;5402381;26;20657;-67
2024/04/14 11:20:12;;;;;;;7.80;2.30;;;;;;;;;;5377935;26;19999;-67
2024/04/14 11:22:37;;;;;;;5.40;2.55;;;;;;;;;;5412284;26;20384;-67
2024/04/14 11:25:02;;;;;;;7.93;2.43;;;;;;;;;;5413740;26;20373;-67
2024/04/14 11:27:28;;;;;;;6.00;1.98;;;;;;;;;;5409086;26;20301;-67
2024/04/14 11:29:53;;;;;;;7.30;2.23;;;;;;;;;;5394280;26;20024;-67
2024/04/14 11:32:29;;;;;;;9.30;2.27;;;;;;;;;;5405686;26;20794;-67
2024/04/14 11:34:59;;;;;;;10.13;1.90;;;;;;;;;;5404236;26;20233;-67
2024/04/14 11:37:26;;;;;;;10.32;2.63;;;;;;;;;;5406531;26;20000;-67
2024/04/14 11:39:52;;;;;;;8.95;2.22;;;;;;;;;;5408157;26;20287;-67
2024/04/14 11:42:17;;;;;;;11.57;2.30;;;;;;;;;;5410251;26;20010;-67
2024/04/14 11:44:42;;;;;;;7.65;3.42;;;;;;;;;;5411128;26;20435;-67
2024/04/14 11:47:08;;;;;;;11.43;2.08;;;;;;;;;;5408286;26;20014;-67
2024/04/14 11:49:34;;;;;;;7.43;1.90;;;;;;;;;;5409797;26;19999;-67
2024/04/14 11:51:59;;;;;;;11.43;2.13;;;;;;;;;;5400064;26;20285;-66
2024/04/14 11:54:24;;;;;;;15.20;2.57;;;;;;;;;;5407551;26;19996;-67
2024/04/14 11:56:51;;;;;;;9.10;2.37;;;;;;;;;;5406874;26;20225;-67
2024/04/14 11:59:16;;;;;;;12.02;2.22;;;;;;;;;;5410413;26;20234;-67
2024/04/14 12:01:41;;;;;;;23.02;2.80;;;;;;;;;;5403564;26;20457;-67
2024/04/14 12:04:06;;;;;;;7.70;2.30;;;;;;;;;;5407224;26;20449;-67
2024/04/14 12:06:34;;;;;;;12.37;3.60;;;;;;;;;;5408928;26;20289;-68
2024/04/14 12:08:59;;;;;;;6.18;3.35;;;;;;;;;;5411187;26;20285;-67
2024/04/14 12:11:24;;;;;;;10.73;2.90;;;;;;;;;;5406541;26;19991;-67
2024/04/14 12:13:49;;;;;;;17.60;2.80;;;;;;;;;;5404299;26;20253;-67
2024/04/14 12:16:16;;;;;;;12.00;2.10;;;;;;;;;;5401121;26;20241;-67
2024/04/14 12:18:41;;;;;;;11.10;2.28;;;;;;;;;;5401439;26;20072;-67
2024/04/14 12:21:06;;;;;;;14.37;2.60;;;;;;;;;;5399735;26;20057;-67
2024/04/14 12:23:31;;;;;;;7.83;2.37;;;;;;;;;;5412455;26;20241;-67
2024/04/14 12:25:56;;;;;;;11.03;2.87;;;;;;;;;;5412793;26;20003;-66
2024/04/14 12:28:21;;;;;;;10.30;2.27;;;;;;;;;;5409812;26;20014;-67
2024/04/14 12:30:47;;;;;;;5.37;2.87;;;;;;;;;;5410798;26;20229;-67
2024/04/14 12:33:12;;;;;;;13.10;3.47;;;;;;;;;;5396763;26;20242;-68
2024/04/14 12:35:37;;;;;;;13.57;3.67;;;;;;;;;;5409767;26;20346;-67
2024/04/14 12:38:02;;;;;;;9.02;3.10;;;;;;;;;;5410627;26;20990;-68
2024/04/14 12:40:28;;;;;;;9.95;3.03;;;;;;;;;;5412200;26;19995;-67
2024/04/14 12:42:53;;;;;;;15.40;3.72;;;;;;;;;;5412186;26;20014;-66
2024/04/14 12:45:18;;;;;;;8.13;2.83;;;;;;;;;;5367780;26;20000;-66
2024/04/14 12:47:44;;;;;;;10.07;2.47;;;;;;;;;;5409897;26;20022;-66
2024/04/14 12:50:09;;;;;;;8.90;3.03;;;;;;;;;;5406591;26;20027;-66
2024/04/14 12:52:34;;;;;;;15.83;3.13;;;;;;;;;;5410168;26;20568;-66
2024/04/14 12:54:59;;;;;;;6.93;2.70;;;;;;;;;;5411493;26;20324;-66
2024/04/14 12:57:24;;;;;;;10.70;3.13;;;;;;;;;;5409537;26;20242;-66
2024/04/14 12:59:49;;;;;;;11.90;2.83;;;;;;;;;;5410401;26;20014;-66
2024/04/14 13:02:15;;;;;;;9.55;2.50;;;;;;;;;;5403623;26;20280;-66
2024/04/14 13:04:43;;;;;;;13.00;2.37;;;;;;;;;;5413308;26;20512;-67
2024/04/14 13:07:08;;;;;;;6.75;1.92;;;;;;;;;;5397071;26;20622;-66
2024/04/14 13:09:33;;;;;;;12.70;2.80;;;;;;;;;;5412020;26;20015;-66
2024/04/14 13:11:58;;;;;;;11.23;2.13;;;;;;;;;;5412208;26;20261;-66
2024/04/14 13:14:23;;;;;;;8.60;2.43;;;;;;;;;;5405764;26;20003;-66
2024/04/14 13:16:49;;;;;;;12.73;2.30;;;;;;;;;;5411075;26;20234;-66
2024/04/14 13:19:14;;;;;;;10.63;2.30;;;;;;;;;;5411241;26;20031;-66
2024/04/14 13:21:41;;;;;;;13.33;2.97;;;;;;;;;;5412092;26;20051;-66
2024/04/14 13:24:06;;;;;;;5.90;1.83;;;;;;;;;;5411061;26;20007;-66
2024/04/14 13:26:33;;;;;;;7.65;2.28;;;;;;;;;;5410826;26;20069;-66
2024/04/14 13:28:58;;;;;;;10.00;2.25;;;;;;;;;;5407606;26;20319;-66
2024/04/14 13:31:23;;;;;;;8.82;2.25;;;;;;;;;;5408502;26;20011;-66
2024/04/14 13:33:48;;;;;;;10.15;3.28;;;;;;;;;;5405754;26;19993;-67
2024/04/14 13:36:13;;;;;;;6.80;1.93;;;;;;;;;;5397170;26;20577;-66
2024/04/14 13:38:39;;;;;;;12.13;2.30;;;;;;;;;;5411063;26;20245;-66
2024/04/14 13:41:06;;;;;;;13.07;2.20;;;;;;;;;;5410076;26;20241;-66
2024/04/14 13:43:31;;;;;;;15.07;2.05;;;;;;;;;;5408600;26;20241;-66
2024/04/14 13:45:57;;;;;;;6.05;2.00;;;;;;;;;;5407792;26;20014;-66
2024/04/14 13:48:22;;;;;;;8.77;1.70;;;;;;;;;;5378971;26;20090;-67
2024/04/14 13:50:47;;;;;;;18.37;2.20;;;;;;;;;;5411878;26;20007;-67
2024/04/14 13:53:13;;;;;;;14.33;2.37;;;;;;;;;;5410672;26;19996;-68
2024/04/14 13:55:38;;;;;;;6.83;1.97;;;;;;;;;;5408810;26;20234;-67
2024/04/14 13:58:03;;;;;;;8.47;2.83;;;;;;;;;;5410724;26;20694;-66
2024/04/14 14:00:28;;;;;;;6.82;1.85;;;;;;;;;;5411563;26;19999;-66
2024/04/14 14:02:53;;;;;;;7.50;1.90;;;;;;;;;;5411420;26;20440;-66
2024/04/14 14:05:19;;;;;;;5.35;1.85;;;;;;;;;;5407409;26;20248;-66
2024/04/14 14:07:44;;;;;;;7.07;1.83;;;;;;;;;;5411916;26;19992;-66
2024/04/14 14:10:09;;;;;;;9.75;2.20;;;;;;;;;;5407264;26;20003;-67
2024/04/14 14:12:34;;;;;;;8.67;2.33;;;;;;;;;;5410712;26;20018;-67
2024/04/14 14:14:59;;;;;;;12.40;2.77;;;;;;;;;;5409218;26;20003;-66
2024/04/14 14:17:24;;;;;;;11.37;2.80;;;;;;;;;;5411376;26;20277;-66
2024/04/14 14:19:51;;;;;;;12.67;2.50;;;;;;;;;;5411590;26;20554;-66
2024/04/14 14:22:16;;;;;;;10.00;2.28;;;;;;;;;;5411141;26;20467;-66
2024/04/14 14:24:41;;;;;;;6.53;2.20;;;;;;;;;;5411243;26;20006;-66